createdAt,value
2023-03-02T00:01:10.757Z,26.20
2023-03-02T00:03:40.759Z,24.23
2023-03-02T00:06:09.088Z,24.30
2023-03-02T00:08:37.221Z,25.75
2023-03-02T00:11:04.273Z,25.52
2023-03-02T00:13:34.433Z,24.92
2023-03-02T00:16:01.356Z,23.63
2023-03-02T00:18:28.356Z,25.67
2023-03-02T00:20:55.290Z,24.25
2023-03-02T00:23:22.243Z,25.15
2023-03-02T00:25:49.055Z,25.45
2023-03-02T00:28:16.271Z,25.63
2023-03-02T00:30:43.196Z,26.30
2023-03-02T00:33:10.030Z,26.27
2023-03-02T00:35:38.447Z,25.52
2023-03-02T00:38:05.688Z,26.17
2023-03-02T00:40:32.557Z,27.58
2023-03-02T00:42:59.344Z,27.55
2023-03-02T00:45:26.545Z,26.83
2023-03-02T00:47:53.355Z,26.13
2023-03-02T00:50:20.169Z,25.58
2023-03-02T00:52:47.074Z,26.98
2023-03-02T00:55:13.879Z,26.15
2023-03-02T00:57:40.749Z,26.10
2023-03-02T01:00:08.450Z,27.70
2023-03-02T01:02:35.356Z,28.85
2023-03-02T01:05:02.247Z,26.42
2023-03-02T01:07:29.159Z,27.33
2023-03-02T01:09:56.041Z,27.65
2023-03-02T01:12:23.204Z,25.55
2023-03-02T01:14:50.962Z,25.90
2023-03-02T01:17:17.974Z,26.85
2023-03-02T01:19:44.824Z,26.17
2023-03-02T01:22:11.982Z,26.30
2023-03-02T01:24:38.910Z,28.65
2023-03-02T01:27:05.925Z,27.60
2023-03-02T01:29:32.767Z,27.05
2023-03-02T01:31:59.970Z,25.52
2023-03-02T01:34:27.011Z,28.10
2023-03-02T01:36:53.847Z,25.10
2023-03-02T01:39:22.599Z,28.45
2023-03-02T01:41:52.211Z,27.65
2023-03-02T01:45:03.977Z,25.48
2023-03-02T01:47:39.150Z,24.35
2023-03-02T01:50:14.879Z,24.80
2023-03-02T01:52:42.066Z,26.15
2023-03-02T01:55:12.117Z,26.58
2023-03-02T01:57:45.037Z,27.10
2023-03-02T02:00:16.090Z,25.45
2023-03-02T02:02:43.330Z,23.55
2023-03-02T02:05:14.721Z,26.20
2023-03-02T02:07:42.295Z,25.45
2023-03-02T02:10:10.143Z,25.00
2023-03-02T02:12:37.122Z,24.30
2023-03-02T02:15:05.168Z,23.20
2023-03-02T02:17:32.773Z,20.15
2023-03-02T02:20:16.724Z,20.65
2023-03-02T02:23:03.790Z,18.40
2023-03-02T02:26:01.972Z,16.38
2023-03-02T02:28:34.838Z,16.13
2023-03-02T02:31:14.680Z,18.08
2023-03-02T02:33:46.071Z,17.27
2023-03-02T02:36:25.468Z,15.35
2023-03-02T02:38:56.254Z,17.85
2023-03-02T02:41:28.478Z,17.15
2023-03-02T02:43:56.248Z,16.65
2023-03-02T02:46:24.651Z,16.35
2023-03-02T02:48:51.934Z,18.92
2023-03-02T02:51:23.809Z,19.17
2023-03-02T02:53:59.094Z,16.85
2023-03-02T02:56:35.620Z,16.50
2023-03-02T02:59:29.610Z,16.42
2023-03-02T03:01:56.987Z,17.17
2023-03-02T03:04:28.421Z,15.57
2023-03-02T03:07:01.970Z,18.17
2023-03-02T03:09:29.536Z,17.92
2023-03-02T03:12:15.428Z,17.25
2023-03-02T03:14:42.802Z,17.13
2023-03-02T03:17:13.342Z,15.45
2023-03-02T03:19:42.617Z,16.45
2023-03-02T03:22:13.569Z,14.35
2023-03-02T03:24:42.796Z,17.70
2023-03-02T03:27:12.523Z,17.60
2023-03-02T03:29:41.427Z,15.15
2023-03-02T03:32:08.758Z,16.52
2023-03-02T03:34:40.814Z,18.55
2023-03-02T03:37:13.604Z,19.63
2023-03-02T03:39:41.316Z,18.23
2023-03-02T03:42:08.493Z,18.55
2023-03-02T03:44:35.852Z,17.65
2023-03-02T03:47:02.831Z,20.48
2023-03-02T03:49:30.104Z,19.27
2023-03-02T03:51:57.101Z,19.85
2023-03-02T03:54:24.302Z,18.20
2023-03-02T03:56:51.311Z,18.88
2023-03-02T03:59:21.131Z,17.50
2023-03-02T04:01:51.493Z,20.00
2023-03-02T04:04:22.624Z,20.48
2023-03-02T04:06:50.087Z,20.88
2023-03-02T04:09:20.248Z,19.25
2023-03-02T04:11:49.522Z,19.10
2023-03-02T04:14:17.513Z,19.20
2023-03-02T04:16:45.167Z,20.50
2023-03-02T04:19:13.675Z,19.80
2023-03-02T04:21:44.975Z,20.75
2023-03-02T04:24:13.488Z,20.85
2023-03-02T04:26:41.917Z,18.55
2023-03-02T04:29:09.958Z,18.27
2023-03-02T04:31:37.315Z,19.65
2023-03-02T04:34:04.715Z,20.80
2023-03-02T04:36:34.804Z,20.38
2023-03-02T04:39:01.925Z,18.83
2023-03-02T04:41:28.874Z,18.67
2023-03-02T04:43:56.783Z,18.02
2023-03-02T04:46:26.443Z,18.27
2023-03-02T04:48:53.740Z,17.75
2023-03-02T04:51:24.765Z,17.70
2023-03-02T04:53:53.810Z,18.80
2023-03-02T04:56:21.142Z,16.98
2023-03-02T04:58:48.133Z,17.55
2023-03-02T05:01:16.733Z,18.30
2023-03-02T05:03:43.840Z,17.13
2023-03-02T05:06:11.280Z,16.80
2023-03-02T05:08:38.554Z,17.50
2023-03-02T05:11:07.912Z,17.02
2023-03-02T05:13:36.129Z,16.90
2023-03-02T05:16:03.830Z,17.20
2023-03-02T05:18:31.819Z,17.90
2023-03-02T05:20:58.783Z,17.40
2023-03-02T05:23:27.109Z,16.25
2023-03-02T05:25:56.132Z,15.57
2023-03-02T05:28:25.854Z,15.80
2023-03-02T05:30:53.372Z,16.75
2023-03-02T05:33:21.140Z,15.45
2023-03-02T05:35:48.503Z,15.10
2023-03-02T05:38:15.538Z,16.50
2023-03-02T05:40:42.649Z,18.70
2023-03-02T05:43:13.780Z,18.00
2023-03-02T05:45:40.699Z,18.00
2023-03-02T05:48:09.097Z,17.58
2023-03-02T05:50:35.974Z,17.75
2023-03-02T05:53:02.846Z,18.95
2023-03-02T05:55:37.293Z,18.00
2023-03-02T05:58:09.271Z,17.30
2023-03-02T06:00:36.343Z,18.08
2023-03-02T06:03:03.378Z,16.35
2023-03-02T06:05:30.456Z,16.10
2023-03-02T06:07:57.378Z,16.05
2023-03-02T06:10:24.710Z,18.05
2023-03-02T06:12:51.655Z,14.98
2023-03-02T06:15:19.652Z,16.38
2023-03-02T06:17:46.646Z,18.55
2023-03-02T06:20:16.934Z,15.77
2023-03-02T06:22:45.853Z,16.70
2023-03-02T06:25:15.952Z,16.33
2023-03-02T06:27:43.555Z,15.98
2023-03-02T06:30:14.239Z,14.68
2023-03-02T06:32:41.916Z,15.80
2023-03-02T06:35:09.803Z,17.05
2023-03-02T06:37:37.115Z,14.68
2023-03-02T06:40:10.249Z,15.18
2023-03-02T06:42:38.389Z,15.60
2023-03-02T06:45:07.221Z,16.30
2023-03-02T06:47:34.097Z,16.00
2023-03-02T06:50:01.002Z,16.88
2023-03-02T06:52:27.925Z,16.42
2023-03-02T06:54:56.385Z,14.50
2023-03-02T06:57:23.478Z,14.93
2023-03-02T06:59:50.404Z,16.65
2023-03-02T07:02:17.253Z,17.35
2023-03-02T07:04:44.007Z,15.93
2023-03-02T07:07:10.765Z,15.32
2023-03-02T07:09:37.617Z,16.83
2023-03-02T07:12:04.524Z,16.90
2023-03-02T07:14:31.388Z,15.75
2023-03-02T07:17:00.206Z,16.52
2023-03-02T07:19:27.147Z,16.30
2023-03-02T07:21:53.883Z,17.55
2023-03-02T07:24:20.817Z,16.38
2023-03-02T07:26:47.713Z,17.27
2023-03-02T07:29:14.513Z,17.08
2023-03-02T07:31:44.295Z,17.48
2023-03-02T07:34:11.211Z,15.10
2023-03-02T07:36:38.027Z,17.63
2023-03-02T07:39:04.934Z,17.55
2023-03-02T07:41:32.187Z,16.48
2023-03-02T07:43:59.123Z,17.42
2023-03-02T07:46:26.087Z,17.33
2023-03-02T07:48:54.043Z,17.88
2023-03-02T07:51:20.877Z,16.52
2023-03-02T07:53:47.687Z,18.13
2023-03-02T07:56:14.537Z,17.83
2023-03-02T07:58:41.379Z,16.20
2023-03-02T08:01:08.830Z,18.17
2023-03-02T08:03:36.240Z,17.30
2023-03-02T08:06:08.276Z,16.35
2023-03-02T08:08:35.938Z,18.77
2023-03-02T08:11:11.136Z,16.98
2023-03-02T08:13:38.144Z,18.30
2023-03-02T08:16:07.517Z,16.70
2023-03-02T08:18:35.571Z,16.70
2023-03-02T08:21:02.342Z,15.13
2023-03-02T08:23:29.176Z,16.55
2023-03-02T08:25:56.122Z,16.95
2023-03-02T08:28:23.468Z,17.73
2023-03-02T08:30:58.044Z,18.13
2023-03-02T08:33:25.132Z,15.90
2023-03-02T08:36:01.217Z,16.17
2023-03-02T08:38:28.657Z,16.90
2023-03-02T08:40:55.898Z,14.65
2023-03-02T08:43:24.860Z,15.60
2023-03-02T08:45:58.008Z,14.80
2023-03-02T08:48:26.693Z,13.85
2023-03-02T08:51:02.727Z,14.63
2023-03-02T08:53:33.735Z,14.85
2023-03-02T08:56:01.682Z,14.02
2023-03-02T08:58:29.072Z,12.68
2023-03-02T09:00:56.014Z,13.48
2023-03-02T09:03:22.989Z,13.02
2023-03-02T09:05:49.946Z,13.70
2023-03-02T09:08:17.145Z,13.43
2023-03-02T09:10:43.971Z,14.57
2023-03-02T09:13:10.730Z,13.35
2023-03-02T09:15:37.577Z,13.20
2023-03-02T09:18:04.700Z,12.00
2023-03-02T09:20:32.266Z,12.43
2023-03-02T09:22:59.215Z,13.75
2023-03-02T09:25:26.129Z,12.95
2023-03-02T09:27:52.901Z,12.48
2023-03-02T09:30:19.932Z,12.57
2023-03-02T09:32:49.048Z,11.70
2023-03-02T09:35:16.099Z,14.07
2023-03-02T09:37:44.465Z,13.77
2023-03-02T09:40:23.516Z,12.93
2023-03-02T09:43:19.933Z,12.75
2023-03-02T09:46:07.574Z,11.05
2023-03-02T09:49:31.026Z,12.85
2023-03-02T09:52:11.730Z,11.15
2023-03-02T09:54:40.124Z,11.32
2023-03-02T09:57:24.387Z,12.60
2023-03-02T10:00:03.786Z,11.57
2023-03-02T10:02:41.370Z,11.40
2023-03-02T10:05:20.860Z,13.35
2023-03-02T10:07:48.429Z,11.70
2023-03-02T10:10:33.333Z,12.02
2023-03-02T10:13:10.789Z,10.70
2023-03-02T10:15:51.080Z,12.50
2023-03-02T10:18:23.740Z,12.77
2023-03-02T10:21:00.019Z,11.80
2023-03-02T10:23:37.812Z,11.82
2023-03-02T10:26:24.926Z,13.18
2023-03-02T10:29:04.047Z,13.35
2023-03-02T10:31:33.158Z,14.30
2023-03-02T10:34:01.302Z,16.58
2023-03-02T10:36:37.516Z,17.25
2023-03-02T10:39:12.394Z,16.17
2023-03-02T10:41:47.212Z,15.25
2023-03-02T10:44:23.880Z,16.67
2023-03-02T10:46:53.765Z,16.25
2023-03-02T10:49:25.215Z,16.90
2023-03-02T10:52:14.636Z,14.77
2023-03-02T10:54:41.781Z,11.13
2023-03-02T10:57:38.850Z,8.30
2023-03-02T11:00:23.549Z,7.78
2023-03-02T11:03:03.457Z,7.00
2023-03-02T11:05:39.302Z,6.05
2023-03-02T11:08:10.304Z,5.75
2023-03-02T11:10:50.785Z,5.43
2023-03-02T11:13:19.204Z,5.07
2023-03-02T11:15:51.405Z,5.38
2023-03-02T11:18:31.384Z,6.18
2023-03-02T11:21:05.769Z,4.25
2023-03-02T11:23:52.126Z,4.28
2023-03-02T11:26:52.764Z,4.38
2023-03-02T11:29:47.275Z,4.50
2023-03-02T11:32:22.327Z,3.75
2023-03-02T11:34:51.909Z,3.40
2023-03-02T11:37:24.035Z,3.40
2023-03-02T11:40:05.977Z,3.30
2023-03-02T11:42:36.074Z,4.10
2023-03-02T11:45:09.670Z,4.20
2023-03-02T11:47:37.780Z,4.00
2023-03-02T11:50:06.853Z,4.13
2023-03-02T11:52:39.204Z,3.78
2023-03-02T11:55:19.757Z,4.40
2023-03-02T11:57:53.047Z,3.95
2023-03-02T12:00:38.592Z,4.18
2023-03-02T12:03:35.411Z,4.40
2023-03-02T12:06:16.655Z,4.55
2023-03-02T12:08:46.751Z,3.80
2023-03-02T12:11:19.663Z,3.15
2023-03-02T12:13:49.249Z,4.05
2023-03-02T12:16:23.817Z,3.88
2023-03-02T12:18:52.508Z,3.88
2023-03-02T12:21:20.384Z,3.95
2023-03-02T12:23:50.263Z,3.35
2023-03-02T12:26:19.787Z,3.85
2023-03-02T12:29:02.573Z,3.35
2023-03-02T12:31:53.632Z,5.40
2023-03-02T12:34:43.111Z,4.22
2023-03-02T12:37:23.637Z,4.65
2023-03-02T12:40:16.671Z,5.68
2023-03-02T12:42:43.621Z,5.10
2023-03-02T12:45:25.817Z,4.82
2023-03-02T12:48:03.018Z,4.80
2023-03-02T12:50:41.406Z,4.35
2023-03-02T12:53:18.520Z,3.75
2023-03-02T12:55:45.775Z,3.95
2023-03-02T12:58:22.152Z,3.78
2023-03-02T13:00:52.249Z,4.45
2023-03-02T13:03:19.125Z,3.95
2023-03-02T13:05:47.475Z,4.50
2023-03-02T13:08:14.228Z,4.03
2023-03-02T13:10:43.945Z,3.70
2023-03-02T13:13:34.797Z,4.18
2023-03-02T13:16:04.606Z,3.97
2023-03-02T13:18:34.172Z,4.78
2023-03-02T13:21:03.145Z,4.78
2023-03-02T13:23:31.567Z,5.75
2023-03-02T13:26:01.475Z,6.05
2023-03-02T13:28:32.334Z,5.22
2023-03-02T13:31:23.638Z,5.20
2023-03-02T13:33:52.820Z,5.50
2023-03-02T13:36:26.001Z,4.70
2023-03-02T13:38:56.220Z,4.55
2023-03-02T13:41:24.204Z,5.20
2023-03-02T13:43:51.434Z,6.78
2023-03-02T13:46:18.302Z,5.32
2023-03-02T13:49:07.478Z,4.75
2023-03-02T13:51:40.468Z,4.45
2023-03-02T13:54:21.384Z,4.50
2023-03-02T13:56:49.582Z,5.43
2023-03-02T13:59:19.355Z,4.80
2023-03-02T14:01:47.039Z,5.45
2023-03-02T14:04:17.637Z,4.07
2023-03-02T14:06:45.875Z,5.28
2023-03-02T14:09:13.472Z,5.32
2023-03-02T14:11:50.493Z,6.45
2023-03-02T14:14:21.087Z,4.95
2023-03-02T14:16:48.224Z,4.85
2023-03-02T14:19:18.735Z,5.63
2023-03-02T14:21:46.770Z,6.22
2023-03-02T14:24:14.138Z,5.78
2023-03-02T14:26:45.842Z,6.50
2023-03-02T14:29:29.104Z,6.55
2023-03-02T14:32:00.700Z,6.35
2023-03-02T14:34:27.727Z,6.60
2023-03-02T14:36:58.261Z,6.40
2023-03-02T14:39:40.277Z,6.78
2023-03-02T14:42:13.367Z,7.07
2023-03-02T14:44:41.406Z,6.18
2023-03-02T14:47:10.167Z,6.70
2023-03-02T14:49:37.936Z,6.25
2023-03-02T14:52:12.693Z,6.70
2023-03-02T14:54:46.255Z,8.13
2023-03-02T14:57:21.555Z,7.25
2023-03-02T14:59:48.961Z,6.68
2023-03-02T15:02:25.351Z,7.80
2023-03-02T15:04:56.539Z,7.80
2023-03-02T15:07:24.976Z,7.00
2023-03-02T15:09:51.857Z,7.43
2023-03-02T15:12:18.778Z,7.03
2023-03-02T15:14:45.654Z,7.53
2023-03-02T15:17:12.515Z,6.80
2023-03-02T15:19:39.463Z,7.30
2023-03-02T15:22:06.398Z,6.82
2023-03-02T15:24:33.695Z,7.47
2023-03-02T15:27:00.795Z,8.05
2023-03-02T15:29:27.699Z,7.15
2023-03-02T15:31:54.823Z,8.30
2023-03-02T15:34:21.944Z,7.40
2023-03-02T15:36:48.899Z,6.78
2023-03-02T15:39:16.792Z,7.57
2023-03-02T15:41:43.969Z,7.38
2023-03-02T15:44:22.090Z,8.65
2023-03-02T15:46:53.549Z,7.50
2023-03-02T15:49:23.040Z,7.82
2023-03-02T15:51:54.798Z,6.50
2023-03-02T15:54:22.202Z,7.30
2023-03-02T15:56:52.177Z,7.88
2023-03-02T15:59:20.506Z,7.38
2023-03-02T16:01:47.486Z,6.97
2023-03-02T16:04:14.456Z,7.15
2023-03-02T16:06:41.418Z,7.40
2023-03-02T16:09:08.735Z,7.05
2023-03-02T16:11:35.632Z,8.65
2023-03-02T16:14:03.032Z,7.38
2023-03-02T16:16:30.171Z,7.95
2023-03-02T16:18:59.074Z,7.47
2023-03-02T16:21:28.638Z,6.95
2023-03-02T16:24:03.161Z,7.53
2023-03-02T16:26:32.072Z,6.60
2023-03-02T16:28:59.904Z,7.93
2023-03-02T16:31:28.145Z,7.55
2023-03-02T16:33:57.588Z,6.97
2023-03-02T16:36:24.695Z,7.68
2023-03-02T16:38:52.295Z,8.23
2023-03-02T16:41:23.737Z,7.30
2023-03-02T16:43:56.594Z,6.60
2023-03-02T16:46:25.958Z,5.97
2023-03-02T16:48:53.630Z,6.85
2023-03-02T16:51:20.958Z,7.20
2023-03-02T16:53:48.055Z,6.60
2023-03-02T16:56:15.697Z,7.68
2023-03-02T16:58:43.513Z,8.40
2023-03-02T17:01:16.536Z,7.60
2023-03-02T17:03:44.476Z,6.43
2023-03-02T17:06:13.249Z,6.40
2023-03-02T17:08:40.519Z,7.13
2023-03-02T17:11:07.694Z,7.03
2023-03-02T17:13:34.897Z,6.90
2023-03-02T17:16:02.233Z,6.75
2023-03-02T17:18:30.037Z,6.30
2023-03-02T17:20:58.889Z,6.03
2023-03-02T17:23:27.203Z,8.32
2023-03-02T17:25:54.972Z,6.78
2023-03-02T17:28:21.944Z,6.68
2023-03-02T17:30:49.205Z,5.93
2023-03-02T17:33:17.270Z,7.07
2023-03-02T17:35:46.266Z,7.30
2023-03-02T17:38:14.444Z,6.85
2023-03-02T17:40:42.263Z,7.65
2023-03-02T17:43:09.304Z,7.20
2023-03-02T17:45:37.326Z,7.47
2023-03-02T17:48:04.586Z,6.90
2023-03-02T17:50:32.475Z,8.98
2023-03-02T17:53:00.046Z,6.57
2023-03-02T17:55:27.413Z,8.68
2023-03-02T17:57:54.774Z,7.47
2023-03-02T18:00:26.282Z,7.13
2023-03-02T18:02:54.150Z,7.88
2023-03-02T18:05:21.928Z,7.47
2023-03-02T18:07:49.001Z,8.00
2023-03-02T18:10:16.643Z,10.02
2023-03-02T18:12:43.798Z,7.88
2023-03-02T18:15:12.521Z,8.85
2023-03-02T18:17:39.442Z,8.27
2023-03-02T18:20:07.315Z,9.20
2023-03-02T18:22:36.880Z,7.93
2023-03-02T18:25:04.143Z,8.07
2023-03-02T18:27:31.093Z,9.63
2023-03-02T18:29:58.069Z,8.20
2023-03-02T18:32:25.945Z,8.98
2023-03-02T18:34:52.990Z,9.50
2023-03-02T18:37:19.918Z,8.57
2023-03-02T18:39:47.181Z,9.93
2023-03-02T18:42:14.379Z,8.68
2023-03-02T18:44:41.374Z,9.40
2023-03-02T18:47:10.155Z,9.18
2023-03-02T18:49:38.332Z,8.85
2023-03-02T18:52:06.919Z,9.10
2023-03-02T18:54:33.838Z,8.73
2023-03-02T18:57:01.815Z,9.18
2023-03-02T18:59:29.373Z,9.95
2023-03-02T19:01:57.511Z,9.65
2023-03-02T19:04:26.850Z,9.90
2023-03-02T19:06:56.124Z,9.75
2023-03-02T19:09:23.732Z,11.15
2023-03-02T19:11:50.665Z,10.75
2023-03-02T19:14:17.682Z,10.63
2023-03-02T19:16:44.743Z,9.98
2023-03-02T19:19:11.535Z,9.38
2023-03-02T19:21:38.440Z,10.90
2023-03-02T19:24:05.798Z,11.90
2023-03-02T19:26:32.837Z,11.50
2023-03-02T19:29:00.232Z,11.60
2023-03-02T19:31:27.644Z,11.40
2023-03-02T19:33:54.882Z,10.93
2023-03-02T19:36:21.729Z,11.05
2023-03-02T19:38:48.529Z,11.05
2023-03-02T19:41:18.284Z,10.70
2023-03-02T19:43:47.510Z,12.25
2023-03-02T19:46:19.145Z,12.07
2023-03-02T19:48:46.113Z,11.98
2023-03-02T19:51:15.171Z,13.10
2023-03-02T19:53:43.739Z,13.75
2023-03-02T19:56:13.159Z,13.52
2023-03-02T19:58:47.297Z,12.85
2023-03-02T20:01:17.686Z,12.95
2023-03-02T20:03:46.309Z,15.30
2023-03-02T20:06:13.159Z,13.10
2023-03-02T20:08:39.976Z,12.68
2023-03-02T20:11:06.874Z,13.35
2023-03-02T20:13:33.742Z,13.80
2023-03-02T20:16:01.529Z,13.77
2023-03-02T20:18:28.410Z,13.27
2023-03-02T20:20:55.253Z,13.90
2023-03-02T20:23:22.306Z,14.15
2023-03-02T20:25:49.515Z,14.05
2023-03-02T20:28:18.733Z,14.43
2023-03-02T20:30:51.445Z,16.00
2023-03-02T20:33:20.250Z,16.83
2023-03-02T20:35:47.931Z,16.17
2023-03-02T20:38:31.192Z,16.83
2023-03-02T20:40:58.549Z,18.55
2023-03-02T20:43:25.622Z,19.58
2023-03-02T20:45:53.436Z,19.50
2023-03-02T20:48:22.253Z,20.05
2023-03-02T20:50:50.737Z,18.42
2023-03-02T20:53:18.386Z,20.10
2023-03-02T20:55:45.664Z,20.65
2023-03-02T20:58:13.553Z,22.08
2023-03-02T21:00:41.289Z,20.83
2023-03-02T21:03:08.529Z,20.92
2023-03-02T21:05:37.545Z,21.92
2023-03-02T21:08:04.971Z,21.17
2023-03-02T21:10:36.137Z,20.35
2023-03-02T21:13:04.859Z,22.73
2023-03-02T21:15:32.208Z,22.70
2023-03-02T21:18:00.315Z,24.75
2023-03-02T21:20:30.731Z,24.70
2023-03-02T21:22:58.087Z,22.73
2023-03-02T21:25:24.980Z,25.20
2023-03-02T21:27:51.787Z,25.75
2023-03-02T21:30:22.613Z,24.55
2023-03-02T21:32:49.469Z,26.35
2023-03-02T21:35:20.490Z,24.02
2023-03-02T21:37:49.162Z,25.05
2023-03-02T21:40:23.966Z,23.60
2023-03-02T21:42:50.794Z,24.25
2023-03-02T21:45:18.920Z,26.25
2023-03-02T21:47:46.306Z,24.63
2023-03-02T21:50:18.544Z,25.38
2023-03-02T21:52:45.437Z,26.27
2023-03-02T21:55:13.333Z,25.52
2023-03-02T21:57:40.612Z,25.50
2023-03-02T22:00:09.993Z,24.13
2023-03-02T22:02:37.585Z,24.55
2023-03-02T22:05:04.966Z,24.05
2023-03-02T22:07:32.005Z,24.05
2023-03-02T22:09:58.887Z,25.63
2023-03-02T22:12:26.047Z,25.15
2023-03-02T22:14:54.693Z,23.90
2023-03-02T22:17:24.754Z,26.83
2023-03-02T22:19:52.476Z,25.15
2023-03-02T22:22:24.359Z,24.48
2023-03-02T22:24:52.749Z,25.60
2023-03-02T22:27:30.024Z,25.42
2023-03-02T22:29:59.819Z,25.60
2023-03-02T22:32:38.893Z,25.80
2023-03-02T22:35:25.700Z,27.92
2023-03-02T22:38:01.847Z,27.98
2023-03-02T22:40:34.195Z,29.17
2023-03-02T22:43:31.680Z,27.35
2023-03-02T22:46:17.530Z,27.35
2023-03-02T22:48:47.487Z,24.33
2023-03-02T22:51:23.086Z,25.42
2023-03-02T22:53:55.465Z,28.15
2023-03-02T22:56:25.424Z,27.15
2023-03-02T22:58:53.560Z,27.10
2023-03-02T23:01:29.589Z,27.45
2023-03-02T23:04:22.458Z,29.90
2023-03-02T23:06:54.454Z,28.50
2023-03-02T23:09:27.742Z,26.50
2023-03-02T23:11:58.170Z,27.60
2023-03-02T23:14:29.366Z,27.35
2023-03-02T23:17:02.683Z,27.50
2023-03-02T23:19:31.003Z,28.85
2023-03-02T23:21:58.435Z,28.42
2023-03-02T23:24:25.830Z,29.08
2023-03-02T23:26:53.203Z,27.23
2023-03-02T23:29:21.407Z,29.80
2023-03-02T23:31:49.093Z,27.27
2023-03-02T23:34:16.361Z,27.40
2023-03-02T23:36:43.800Z,27.60
2023-03-02T23:39:10.870Z,28.17
2023-03-02T23:41:38.901Z,29.67
2023-03-02T23:44:07.116Z,25.60
2023-03-02T23:46:34.740Z,29.38
2023-03-02T23:49:01.811Z,28.83
2023-03-02T23:51:28.628Z,30.10
2023-03-02T23:53:56.130Z,30.25
2023-03-02T23:56:23.470Z,29.60
2023-03-02T23:58:51.435Z,27.45
